Time,TemperatureF,DewpointF,PressureIn,WindDirection,WindDirectionDegrees,WindSpeedMPH,WindSpeedGustMPH,Humidity,HourlyPrecipIn,Conditions,Clouds,dailyrainin,SoftwareType,DateUTC
2013-06-21 00:06:00,73.0,71.8,29.91,SSW,202,0.0,-999.0,96,-99.99,,,0.00,Acu-Link.com,2013-06-21 04:06:00,
2013-06-21 00:21:00,72.7,71.5,29.90,South,180,0.0,-999.0,96,-99.99,,,0.00,Acu-Link.com,2013-06-21 04:21:00,
2013-06-21 00:37:00,72.7,71.5,29.90,SW,225,0.0,-999.0,96,-99.99,,,0.00,Acu-Link.com,2013-06-21 04:37:00,
2013-06-21 00:52:00,72.5,71.3,29.90,WSW,247,0.0,-999.0,96,-99.99,,,0.00,Acu-Link.com,2013-06-21 04:52:00,
2013-06-21 01:07:00,72.7,71.5,29.90,South,180,1.7,-999.0,96,-99.99,,,0.00,Acu-Link.com,2013-06-21 05:07:00,
2013-06-21 01:22:00,72.5,71.3,29.90,SSE,157,1.7,-999.0,96,-99.99,,,0.00,Acu-Link.com,2013-06-21 05:22:00,
2013-06-21 01:37:00,72.1,70.9,29.90,NE,45,0.0,-999.0,96,-99.99,,,0.00,Acu-Link.com,2013-06-21 05:37:00,
2013-06-21 01:53:00,72.0,70.8,29.89,East,90,0.0,-999.0,96,-99.99,,,0.00,Acu-Link.com,2013-06-21 05:53:00,
2013-06-21 02:08:00,71.8,70.6,29.89,SE,135,0.0,-999.0,96,-99.99,,,0.00,Acu-Link.com,2013-06-21 06:08:00,
2013-06-21 02:23:00,71.6,70.4,29.90,WNW,292,0.0,-999.0,96,-99.99,,,0.00,Acu-Link.com,2013-06-21 06:23:00,
2013-06-21 02:38:00,71.4,70.5,29.89,ESE,112,0.0,-999.0,97,-99.99,,,0.00,Acu-Link.com,2013-06-21 06:38:00,
2013-06-21 02:54:00,71.6,70.7,29.89,ENE,67,0.0,-999.0,97,-99.99,,,0.00,Acu-Link.com,2013-06-21 06:54:00,
2013-06-21 03:09:00,71.2,70.3,29.88,NE,45,0.0,-999.0,97,-99.99,,,0.00,Acu-Link.com,2013-06-21 07:09:00,
2013-06-21 03:24:00,71.8,70.9,29.87,WNW,292,0.0,-999.0,97,-99.99,,,0.00,Acu-Link.com,2013-06-21 07:24:00,
2013-06-21 03:39:00,71.4,70.5,29.87,West,270,0.0,-999.0,97,-99.99,,,0.00,Acu-Link.com,2013-06-21 07:39:00,
2013-06-21 03:54:00,71.1,70.2,29.87,NE,45,0.0,-999.0,97,-99.99,,,0.00,Acu-Link.com,2013-06-21 07:54:00,
2013-06-21 04:10:00,71.4,70.5,29.87,NE,45,0.0,-999.0,97,-99.99,,,0.00,Acu-Link.com,2013-06-21 08:10:00,
2013-06-21 04:25:00,71.8,70.9,29.87,NNE,22,2.2,-999.0,97,-99.99,,,0.00,Acu-Link.com,2013-06-21 08:25:00,
2013-06-21 04:40:00,71.1,69.9,29.87,NNW,337,0.0,-999.0,96,-99.99,,,0.00,Acu-Link.com,2013-06-21 08:40:00,
2013-06-21 04:55:00,71.4,70.5,29.86,SW,225,0.0,-999.0,97,-99.99,,,0.00,Acu-Link.com,2013-06-21 08:55:00,
2013-06-21 05:11:00,71.2,70.3,29.86,SSE,157,1.7,-999.0,97,-99.99,,,0.00,Acu-Link.com,2013-06-21 09:11:00,
2013-06-21 05:26:00,71.6,71.0,29.86,North,0,2.7,-999.0,98,-99.99,,,0.01,Acu-Link.com,2013-06-21 09:26:00,
2013-06-21 05:41:00,71.6,71.0,29.87,NNW,337,2.7,-999.0,98,-99.99,,,0.01,Acu-Link.com,2013-06-21 09:41:00,
2013-06-21 05:56:00,71.2,70.6,29.86,ENE,67,0.0,-999.0,98,-99.99,,,0.01,Acu-Link.com,2013-06-21 09:56:00,
2013-06-21 06:12:00,71.1,70.5,29.87,WNW,292,0.0,-999.0,98,-99.99,,,0.01,Acu-Link.com,2013-06-21 10:12:00,
2013-06-21 06:27:00,71.1,70.5,29.88,NNE,22,0.0,-999.0,98,-99.99,,,0.01,Acu-Link.com,2013-06-21 10:27:00,
2013-06-21 06:42:00,71.1,70.5,29.88,East,90,0.0,-999.0,98,-99.99,,,0.01,Acu-Link.com,2013-06-21 10:42:00,
2013-06-21 06:57:00,71.6,71.0,29.88,NE,45,0.0,-999.0,98,-99.99,,,0.01,Acu-Link.com,2013-06-21 10:57:00,
2013-06-21 07:12:00,72.7,71.2,29.89,NW,315,1.1,-999.0,95,-99.99,,,0.01,Acu-Link.com,2013-06-21 11:12:00,
2013-06-21 07:28:00,75.6,73.1,29.90,ENE,67,0.0,-999.0,92,-99.99,,,0.01,Acu-Link.com,2013-06-21 11:28:00,
2013-06-21 07:43:00,78.1,73.9,29.89,ENE,67,2.2,-999.0,87,-99.99,,,0.01,Acu-Link.com,2013-06-21 11:43:00,
2013-06-21 07:58:00,79.9,75.0,29.90,ESE,112,1.1,-999.0,85,-99.99,,,0.01,Acu-Link.com,2013-06-21 11:58:00,
2013-06-21 08:13:00,83.7,74.9,29.90,NE,45,1.7,-999.0,75,-99.99,,,0.01,Acu-Link.com,2013-06-21 12:13:00,
2013-06-21 08:28:00,85.8,75.3,29.91,NW,315,0.0,-999.0,71,-99.99,,,0.01,Acu-Link.com,2013-06-21 12:28:00,
2013-06-21 08:44:00,85.3,75.6,29.92,SE,135,1.1,-999.0,73,-99.99,,,0.01,Acu-Link.com,2013-06-21 12:44:00,
2013-06-21 08:59:00,88.5,75.7,29.92,ESE,112,3.2,-999.0,66,-99.99,,,0.01,Acu-Link.com,2013-06-21 12:59:00,
2013-06-21 09:14:00,88.0,74.7,29.93,ENE,67,1.7,-999.0,65,-99.99,,,0.01,Acu-Link.com,2013-06-21 13:14:00,
2013-06-21 09:29:00,84.2,72.9,29.92,SE,135,1.7,-999.0,69,-99.99,,,0.01,Acu-Link.com,2013-06-21 13:29:00,
2013-06-21 09:44:00,82.2,72.3,29.93,NE,45,1.7,-999.0,72,-99.99,,,0.01,Acu-Link.com,2013-06-21 13:44:00,
2013-06-21 10:00:00,81.3,72.6,29.93,NNE,22,0.0,-999.0,75,-99.99,,,0.01,Acu-Link.com,2013-06-21 14:00:00,
2013-06-21 10:15:00,84.4,73.5,29.93,WNW,292,1.7,-999.0,70,-99.99,,,0.01,Acu-Link.com,2013-06-21 14:15:00,
2013-06-21 10:30:00,84.2,72.5,29.93,NNE,22,2.2,-999.0,68,-99.99,,,0.01,Acu-Link.com,2013-06-21 14:30:00,
2013-06-21 10:45:00,84.0,74.0,29.93,SW,225,0.0,-999.0,72,-99.99,,,0.01,Acu-Link.com,2013-06-21 14:45:00,
2013-06-21 11:01:00,86.7,73.5,29.94,SW,225,2.7,-999.0,65,-99.99,,,0.01,Acu-Link.com,2013-06-21 15:01:00,
2013-06-21 11:16:00,86.5,74.2,29.93,SSE,157,1.7,-999.0,67,-99.99,,,0.01,Acu-Link.com,2013-06-21 15:16:00,
2013-06-21 11:31:00,83.7,72.9,29.94,West,270,2.2,-999.0,70,-99.99,,,0.01,Acu-Link.com,2013-06-21 15:31:00,
2013-06-21 11:46:00,85.3,73.5,29.93,NW,315,4.2,-999.0,68,-99.99,,,0.01,Acu-Link.com,2013-06-21 15:46:00,
2013-06-21 12:01:00,85.3,72.6,29.93,NW,315,1.7,-999.0,66,-99.99,,,0.01,Acu-Link.com,2013-06-21 16:01:00,
2013-06-21 12:17:00,87.8,74.1,29.93,West,270,0.0,-999.0,64,-99.99,,,0.01,Acu-Link.com,2013-06-21 16:17:00,
2013-06-21 12:32:00,87.8,74.5,29.92,WNW,292,0.0,-999.0,65,-99.99,,,0.01,Acu-Link.com,2013-06-21 16:32:00,
2013-06-21 12:47:00,86.2,73.9,29.92,WNW,292,0.0,-999.0,67,-99.99,,,0.01,Acu-Link.com,2013-06-21 16:47:00,
2013-06-21 13:02:00,89.2,74.4,29.91,ESE,112,3.2,-999.0,62,-99.99,,,0.01,Acu-Link.com,2013-06-21 17:02:00,
2013-06-21 13:17:00,90.3,74.0,29.90,South,180,1.1,-999.0,59,-99.99,,,0.01,Acu-Link.com,2013-06-21 17:17:00,
2013-06-21 14:03:00,91.2,74.3,29.91,SSW,202,4.2,-999.0,58,-99.99,,,0.01,Acu-Link.com,2013-06-21 18:03:00,
2013-06-21 14:18:00,90.3,74.5,29.89,SW,225,4.7,-999.0,60,-99.99,,,0.01,Acu-Link.com,2013-06-21 18:18:00,
2013-06-21 14:33:00,89.2,73.0,29.88,WNW,292,4.7,-999.0,59,-99.99,,,0.01,Acu-Link.com,2013-06-21 18:33:00,
2013-06-21 14:49:00,93.6,75.0,29.87,West,270,1.1,-999.0,55,-99.99,,,0.01,Acu-Link.com,2013-06-21 18:49:00,
2013-06-21 15:04:00,93.9,74.1,29.88,SSE,157,1.7,-999.0,53,-99.99,,,0.01,Acu-Link.com,2013-06-21 19:04:00,
2013-06-21 15:19:00,92.7,72.5,29.87,SSE,157,2.7,-999.0,52,-99.99,,,0.01,Acu-Link.com,2013-06-21 19:19:00,
2013-06-21 15:34:00,93.7,73.4,29.88,SSW,202,1.7,-999.0,52,-99.99,,,0.01,Acu-Link.com,2013-06-21 19:34:00,
2013-06-21 15:50:00,88.7,74.9,29.88,NW,315,5.8,-999.0,64,-99.99,,,0.01,Acu-Link.com,2013-06-21 19:50:00,
2013-06-21 16:05:00,85.5,73.3,29.89,ENE,67,3.2,-999.0,67,-99.99,,,0.01,Acu-Link.com,2013-06-21 20:05:00,
2013-06-21 16:20:00,75.9,74.0,29.92,NNE,22,11.9,-999.0,94,-99.99,,,0.32,Acu-Link.com,2013-06-21 20:20:00,
2013-06-21 16:35:00,72.1,69.6,29.93,ESE,112,9.9,-999.0,92,-99.99,,,1.28,Acu-Link.com,2013-06-21 20:35:00,
2013-06-21 16:50:00,72.1,70.3,29.93,ENE,67,4.7,-999.0,94,-99.99,,,1.86,Acu-Link.com,2013-06-21 20:50:00,
2013-06-21 17:06:00,71.4,69.9,29.92,East,90,5.3,-999.0,95,-99.99,,,2.52,Acu-Link.com,2013-06-21 21:06:00,
2013-06-21 17:21:00,71.8,70.3,29.94,WSW,247,2.2,-999.0,95,-99.99,,,2.59,Acu-Link.com,2013-06-21 21:21:00,
2013-06-21 17:36:00,71.6,70.4,29.93,ESE,112,3.7,-999.0,96,-99.99,,,2.62,Acu-Link.com,2013-06-21 21:36:00,
2013-06-21 17:51:00,71.6,70.4,29.92,NNW,337,1.7,-999.0,96,-99.99,,,2.63,Acu-Link.com,2013-06-21 21:51:00,
2013-06-21 18:06:00,71.6,70.4,29.92,West,270,0.0,-999.0,96,-99.99,,,2.64,Acu-Link.com,2013-06-21 22:06:00,
2013-06-21 18:22:00,71.8,70.6,29.91,ENE,67,0.0,-999.0,96,-99.99,,,2.66,Acu-Link.com,2013-06-21 22:22:00,
2013-06-21 18:37:00,71.8,70.6,29.91,West,270,0.0,-999.0,96,-99.99,,,2.68,Acu-Link.com,2013-06-21 22:37:00,
2013-06-21 18:52:00,72.0,71.1,29.91,North,0,0.0,-999.0,97,-99.99,,,2.71,Acu-Link.com,2013-06-21 22:52:00,
2013-06-21 19:07:00,72.1,71.2,29.92,NE,45,2.7,-999.0,97,-99.99,,,2.75,Acu-Link.com,2013-06-21 23:07:00,
2013-06-21 19:22:00,72.1,71.2,29.93,NE,45,3.2,-999.0,97,-99.99,,,2.76,Acu-Link.com,2013-06-21 23:22:00,
2013-06-21 19:38:00,71.8,70.9,29.93,ESE,112,2.2,-999.0,97,-99.99,,,2.77,Acu-Link.com,2013-06-21 23:38:00,
2013-06-21 19:53:00,71.8,70.9,29.94,ESE,112,2.7,-999.0,97,-99.99,,,2.78,Acu-Link.com,2013-06-21 23:53:00,
2013-06-21 20:08:00,71.6,70.7,29.92,ESE,112,2.2,-999.0,97,-99.99,,,2.81,Acu-Link.com,2013-06-22 00:08:00,
2013-06-21 20:24:00,71.4,70.5,29.92,ESE,112,1.7,-999.0,97,-99.99,,,2.82,Acu-Link.com,2013-06-22 00:24:00,
2013-06-21 20:39:00,71.4,70.5,29.91,South,180,0.0,-999.0,97,-99.99,,,2.82,Acu-Link.com,2013-06-22 00:39:00,
2013-06-21 20:54:00,71.2,70.3,29.91,East,90,0.0,-999.0,97,-99.99,,,2.82,Acu-Link.com,2013-06-22 00:54:00,
2013-06-21 21:09:00,71.2,70.3,29.90,West,270,0.0,-999.0,97,-99.99,,,2.82,Acu-Link.com,2013-06-22 01:09:00,
2013-06-21 21:24:00,71.1,70.2,29.91,WSW,247,1.1,-999.0,97,-99.99,,,2.82,Acu-Link.com,2013-06-22 01:24:00,
2013-06-21 21:40:00,71.1,70.2,29.91,West,270,0.0,-999.0,97,-99.99,,,2.82,Acu-Link.com,2013-06-22 01:40:00,
2013-06-21 21:55:00,72.0,71.4,29.93,NW,315,2.7,-999.0,98,-99.99,,,2.82,Acu-Link.com,2013-06-22 01:55:00,
2013-06-21 22:10:00,71.4,70.8,29.92,ESE,112,0.0,-999.0,98,-99.99,,,2.82,Acu-Link.com,2013-06-22 02:10:00,
2013-06-21 22:25:00,71.2,70.6,29.93,ESE,112,0.0,-999.0,98,-99.99,,,2.82,Acu-Link.com,2013-06-22 02:25:00,
2013-06-21 22:40:00,71.2,70.6,29.93,NE,45,2.7,-999.0,98,-99.99,,,2.82,Acu-Link.com,2013-06-22 02:40:00,
2013-06-21 22:56:00,71.1,70.5,29.93,SSE,157,0.0,-999.0,98,-99.99,,,2.82,Acu-Link.com,2013-06-22 02:56:00,
2013-06-21 23:11:00,70.7,70.1,29.93,NNW,337,1.1,-999.0,98,-99.99,,,2.82,Acu-Link.com,2013-06-22 03:11:00,
2013-06-21 23:26:00,70.7,70.1,29.93,WNW,292,0.0,-999.0,98,-99.99,,,2.82,Acu-Link.com,2013-06-22 03:26:00,
2013-06-21 23:41:00,70.5,69.9,29.93,SSE,157,0.0,-999.0,98,-99.99,,,2.82,Acu-Link.com,2013-06-22 03:41:00,
2013-06-21 23:57:00,70.5,69.9,29.93,East,90,0.0,-999.0,98,-99.99,,,2.82,Acu-Link.com,2013-06-22 03:57:00,